Time;durP1;ratioP1;P1;durP2;ratioP2;P2;SDS_P1;SDS_P2;PMS_P1;PMS_P2;Temp;Humidity;BMP_temperature;BMP_pressure;BME280_temperature;BME280_humidity;BME280_pressure;Samples;Min_cycle;Max_cycle;Signal;HPM_P1;HPM_P2
2022/03/12 00:01:37;;;;;;;2.20;2.00;;;25.90;38.00;;;;;;5054027;28;20450;-84
2022/03/12 00:04:06;;;;;;;2.00;1.90;;;25.80;38.00;;;;;;5054160;28;20468;-85
2022/03/12 00:06:33;;;;;;;1.90;1.80;;;25.90;38.00;;;;;;5054015;28;20779;-92
2022/03/12 00:09:00;;;;;;;1.80;1.70;;;25.80;37.90;;;;;;5054064;28;20950;-84
2022/03/12 00:11:32;;;;;;;2.70;2.50;;;25.90;38.00;;;;;;5054041;28;20477;-84
2022/03/12 00:13:59;;;;;;;2.00;1.80;;;25.80;37.90;;;;;;5054018;28;20495;-84
2022/03/12 00:16:26;;;;;;;1.93;1.80;;;25.80;37.90;;;;;;5053958;28;20446;-84
2022/03/12 00:18:55;;;;;;;2.30;2.10;;;25.80;37.80;;;;;;5054063;28;20446;-95
2022/03/12 00:21:24;;;;;;;1.73;1.63;;;25.80;37.90;;;;;;5053903;28;20445;-85
2022/03/12 00:23:56;;;;;;;2.30;2.20;;;25.80;38.00;;;;;;5053682;28;20965;-95
2022/03/12 00:26:23;;;;;;;2.17;2.07;;;25.80;38.00;;;;;;5054265;28;20473;-96
2022/03/12 00:28:52;;;;;;;2.67;2.47;;;25.80;38.00;;;;;;5053791;28;20499;-85
2022/03/12 00:31:18;;;;;;;2.50;2.30;;;25.80;38.00;;;;;;5053555;28;20575;-87
2022/03/12 00:33:45;;;;;;;1.93;1.83;;;25.80;37.90;;;;;;5053996;28;20442;-96
2022/03/12 00:36:14;;;;;;;2.20;2.10;;;25.70;37.90;;;;;;5053446;28;20438;-85
2022/03/12 00:38:42;;;;;;;2.10;2.00;;;25.80;37.90;;;;;;5053565;28;20541;-84
2022/03/12 00:41:11;;;;;;;2.50;2.30;;;25.70;37.90;;;;;;5053634;28;20446;-85
2022/03/12 00:43:38;;;;;;;2.23;2.03;;;25.70;37.90;;;;;;5053428;28;20502;-85
2022/03/12 00:46:06;;;;;;;2.20;2.00;;;25.70;37.90;;;;;;5053354;28;20472;-84
2022/03/12 00:48:34;;;;;;;2.67;2.47;;;25.70;38.00;;;;;;5053480;28;20442;-84
2022/03/12 00:51:01;;;;;;;2.70;2.50;;;25.70;38.00;;;;;;5053309;28;20489;-85
2022/03/12 00:53:28;;;;;;;2.50;2.30;;;25.70;37.90;;;;;;5053379;28;20454;-85
2022/03/12 00:55:56;;;;;;;2.20;2.10;;;25.70;37.90;;;;;;5053898;28;20812;-85
2022/03/12 00:58:23;;;;;;;2.80;2.60;;;25.70;37.90;;;;;;5054159;28;20444;-94
2022/03/12 01:00:50;;;;;;;2.40;2.30;;;25.70;37.90;;;;;;5053172;28;20450;-95
2022/03/12 01:03:17;;;;;;;1.73;1.63;;;25.70;37.90;;;;;;5053673;28;20441;-94
2022/03/12 01:05:54;;;;;;;2.80;2.60;;;25.70;37.90;;;;;;5053610;28;20785;-85
2022/03/12 01:08:23;;;;;;;2.13;2.00;;;25.70;38.50;;;;;;5053213;28;20456;-94
2022/03/12 01:10:51;;;;;;;2.30;2.10;;;25.70;37.80;;;;;;5053371;28;20477;-85
2022/03/12 01:13:20;;;;;;;2.63;2.43;;;25.70;37.80;;;;;;5053357;28;20438;-84
2022/03/12 01:15:47;;;;;;;2.20;2.10;;;25.70;37.80;;;;;;5053871;28;20430;-84
2022/03/12 01:18:16;;;;;;;2.47;2.27;;;25.70;37.80;;;;;;5053490;28;20813;-84
2022/03/12 01:20:44;;;;;;;1.97;1.87;;;25.60;37.70;;;;;;5053258;28;20437;-85
2022/03/12 01:23:13;;;;;;;2.10;1.90;;;25.60;37.70;;;;;;5054054;28;20987;-96
2022/03/12 01:25:40;;;;;;;2.60;2.40;;;25.70;37.80;;;;;;5053715;28;20929;-85
2022/03/12 01:28:09;;;;;;;2.00;1.90;;;25.60;37.70;;;;;;5053044;28;20929;-84
2022/03/12 01:30:37;;;;;;;2.10;2.00;;;25.60;38.30;;;;;;5052935;28;20448;-96
2022/03/12 01:33:04;;;;;;;2.43;2.23;;;25.60;37.70;;;;;;5053096;28;20453;-84
2022/03/12 01:35:32;;;;;;;2.23;2.03;;;25.70;37.80;;;;;;5053720;28;20437;-86
2022/03/12 01:37:59;;;;;;;2.30;2.20;;;25.60;37.70;;;;;;5053326;28;20438;-96
2022/03/12 01:40:26;;;;;;;2.20;2.10;;;25.60;37.70;;;;;;5052997;28;20473;-85
2022/03/12 01:42:53;;;;;;;2.33;1.90;;;25.60;37.80;;;;;;5052889;28;20806;-85
2022/03/12 01:45:24;;;;;;;2.30;2.10;;;25.60;37.90;;;;;;5053302;28;20442;-85
2022/03/12 01:47:55;;;;;;;2.33;2.13;;;25.60;37.80;;;;;;5055548;28;20775;-84
2022/03/12 01:50:26;;;;;;;2.60;2.40;;;25.60;37.70;;;;;;5056729;28;20487;-84
2022/03/12 01:52:58;;;;;;;2.70;2.50;;;25.60;37.80;;;;;;5056432;28;20489;-84
2022/03/12 01:55:30;;;;;;;2.53;2.33;;;25.60;37.80;;;;;;5056690;28;20936;-84
2022/03/12 01:57:57;;;;;;;2.50;2.30;;;25.50;37.70;;;;;;5056492;28;20484;-84
2022/03/12 02:00:25;;;;;;;3.00;2.50;;;25.60;37.80;;;;;;5056444;28;20440;-85
2022/03/12 02:02:54;;;;;;;2.30;2.10;;;25.60;37.80;;;;;;5056382;28;20438;-84
2022/03/12 02:05:23;;;;;;;2.30;2.10;;;25.60;37.90;;;;;;5056394;28;20438;-84
2022/03/12 02:07:49;;;;;;;2.03;1.90;;;25.50;37.80;;;;;;5056259;28;20437;-84
2022/03/12 02:10:18;;;;;;;2.63;2.43;;;25.60;37.90;;;;;;5056018;28;20546;-84
2022/03/12 02:12:45;;;;;;;2.33;2.13;;;25.60;37.90;;;;;;5056224;28;20473;-84
2022/03/12 02:15:12;;;;;;;2.33;2.13;;;25.50;37.80;;;;;;5056618;28;20438;-85
2022/03/12 02:17:39;;;;;;;2.60;2.40;;;25.50;37.80;;;;;;5056321;28;20452;-84
2022/03/12 02:20:08;;;;;;;2.00;1.87;;;25.70;37.90;;;;;;5056060;28;20449;-84
2022/03/12 02:22:34;;;;;;;2.13;2.00;;;25.50;37.80;;;;;;5055989;28;20461;-85
2022/03/12 02:25:03;;;;;;;2.40;2.30;;;25.50;37.80;;;;;;5055999;28;20939;-94
2022/03/12 02:27:30;;;;;;;2.67;2.47;;;25.50;37.80;;;;;;5055781;28;20434;-84
2022/03/12 02:29:59;;;;;;;2.40;2.20;;;25.50;37.70;;;;;;5055791;28;20947;-84
2022/03/12 02:32:26;;;;;;;2.80;2.60;;;25.50;37.70;;;;;;5055958;28;20486;-95
2022/03/12 02:34:54;;;;;;;2.47;2.27;;;25.50;37.80;;;;;;5055839;28;20446;-85
2022/03/12 02:37:28;;;;;;;2.27;2.17;;;25.50;37.80;;;;;;5055646;28;20438;-84
2022/03/12 02:39:55;;;;;;;2.60;2.40;;;25.50;37.70;;;;;;5055866;28;20438;-84
2022/03/12 02:42:24;;;;;;;2.40;2.20;;;25.50;37.70;;;;;;5055599;28;20433;-84
2022/03/12 02:44:52;;;;;;;2.00;1.80;;;25.50;37.70;;;;;;5055541;28;20481;-84
2022/03/12 02:47:22;;;;;;;2.33;2.13;;;25.50;37.80;;;;;;5055646;28;20450;-85
2022/03/12 02:49:52;;;;;;;2.40;2.27;;;25.50;37.70;;;;;;5055342;28;20481;-84
2022/03/12 02:52:19;;;;;;;2.00;1.90;;;25.50;37.90;;;;;;5055354;28;20512;-85
2022/03/12 02:54:47;;;;;;;2.37;2.20;;;25.50;37.90;;;;;;5055868;28;20438;-92
2022/03/12 02:57:15;;;;;;;2.17;2.07;;;25.50;37.80;;;;;;5055286;28;20450;-85
2022/03/12 02:59:48;;;;;;;2.63;2.50;;;25.40;37.80;;;;;;5055368;28;20449;-95
2022/03/12 03:02:14;;;;;;;2.23;2.13;;;25.50;37.90;;;;;;5055515;28;20496;-84
2022/03/12 03:04:42;;;;;;;2.93;2.73;;;25.50;37.80;;;;;;5055201;28;20448;-84
2022/03/12 03:07:10;;;;;;;2.03;1.93;;;25.50;37.80;;;;;;5055226;28;20503;-85
2022/03/12 03:09:37;;;;;;;2.40;2.20;;;25.40;37.90;;;;;;5054931;28;20453;-89
2022/03/12 03:12:08;;;;;;;2.30;2.10;;;25.50;37.90;;;;;;5054788;28;20485;-84
2022/03/12 03:14:38;;;;;;;2.13;2.03;;;25.50;38.00;;;;;;5054941;28;20452;-95
2022/03/12 03:17:09;;;;;;;2.23;2.13;;;25.50;38.00;;;;;;5055139;28;20463;-85
2022/03/12 03:19:36;;;;;;;2.27;2.17;;;25.40;37.90;;;;;;5054939;28;20450;-84
2022/03/12 03:22:03;;;;;;;2.33;2.20;;;25.40;37.90;;;;;;5055310;28;20799;-84
2022/03/12 03:24:30;;;;;;;2.33;2.17;;;25.40;37.90;;;;;;5054995;28;20442;-85
2022/03/12 03:26:58;;;;;;;2.60;2.40;;;25.40;38.00;;;;;;5054673;28;20448;-95
2022/03/12 03:29:27;;;;;;;1.97;1.87;;;25.40;38.00;;;;;;5055170;28;20450;-85
2022/03/12 03:31:54;;;;;;;2.27;2.13;;;25.40;37.90;;;;;;5054659;28;20492;-85
2022/03/12 03:34:24;;;;;;;2.60;2.40;;;25.50;38.00;;;;;;5054631;28;20453;-85
2022/03/12 03:36:51;;;;;;;2.73;2.53;;;25.40;38.60;;;;;;5054861;28;20442;-84
2022/03/12 03:39:18;;;;;;;2.47;2.27;;;25.40;38.00;;;;;;5054482;28;20468;-84
2022/03/12 03:41:45;;;;;;;2.60;2.40;;;25.40;38.00;;;;;;5054961;28;20454;-85
2022/03/12 03:44:13;;;;;;;2.70;2.50;;;25.40;38.00;;;;;;5054506;28;20810;-85
2022/03/12 03:46:40;;;;;;;2.20;2.10;;;25.40;38.00;;;;;;5055585;28;20453;-85
2022/03/12 03:49:07;;;;;;;2.40;2.20;;;25.40;38.00;;;;;;5054501;28;20770;-96
2022/03/12 03:51:41;;;;;;;2.50;2.30;;;25.40;38.00;;;;;;5054586;28;20454;-85
2022/03/12 03:54:09;;;;;;;2.43;2.23;;;25.40;38.00;;;;;;5054544;28;20464;-85
2022/03/12 03:56:36;;;;;;;2.87;2.67;;;25.40;38.00;;;;;;5054423;28;20442;-96
2022/03/12 03:59:03;;;;;;;2.73;2.53;;;25.40;38.00;;;;;;5054709;28;20947;-91
2022/03/12 04:01:30;;;;;;;2.03;1.93;;;25.40;38.10;;;;;;5054247;28;20438;-84
2022/03/12 04:03:57;;;;;;;2.50;2.30;;;25.40;38.00;;;;;;5054613;28;20445;-84
2022/03/12 04:06:25;;;;;;;1.93;1.83;;;25.40;38.00;;;;;;5054004;28;20474;-85
2022/03/12 04:08:54;;;;;;;2.30;2.10;;;25.40;38.10;;;;;;5054201;28;20792;-84
2022/03/12 04:11:22;;;;;;;2.47;2.27;;;25.40;38.10;;;;;;5053338;28;20434;-85
2022/03/12 04:13:51;;;;;;;2.20;2.10;;;25.30;38.00;;;;;;5053725;28;20489;-84
2022/03/12 04:16:19;;;;;;;2.00;1.80;;;25.30;38.00;;;;;;5053921;28;20454;-84
2022/03/12 04:18:48;;;;;;;2.57;2.30;;;25.40;38.10;;;;;;5054123;28;20448;-85
2022/03/12 04:21:17;;;;;;;2.47;2.27;;;25.40;38.10;;;;;;5053997;28;20462;-85
2022/03/12 04:23:45;;;;;;;2.30;2.20;;;25.30;38.10;;;;;;5053998;28;20537;-84
2022/03/12 04:26:13;;;;;;;2.60;2.40;;;25.30;38.70;;;;;;5053880;28;20777;-90
2022/03/12 04:28:41;;;;;;;2.17;2.07;;;25.30;38.10;;;;;;5053614;28;20445;-87
2022/03/12 04:31:08;;;;;;;2.17;2.07;;;25.30;38.10;;;;;;5053792;28;20835;-84
2022/03/12 04:33:38;;;;;;;2.90;2.70;;;25.30;38.10;;;;;;5053522;28;20485;-85
2022/03/12 04:36:06;;;;;;;3.50;2.33;;;25.30;38.10;;;;;;5053761;28;20835;-85
2022/03/12 04:38:33;;;;;;;2.13;2.03;;;25.30;38.10;;;;;;5053677;28;20445;-95
2022/03/12 04:40:59;;;;;;;2.83;2.63;;;25.30;38.10;;;;;;5053773;28;20803;-84
2022/03/12 04:43:30;;;;;;;2.97;2.67;;;25.30;38.10;;;;;;5053203;28;20469;-84
2022/03/12 04:45:58;;;;;;;2.77;2.57;;;25.30;38.10;;;;;;5053539;28;20522;-96
2022/03/12 04:48:25;;;;;;;2.43;2.33;;;25.40;38.20;;;;;;5053499;28;20845;-85
2022/03/12 04:50:53;;;;;;;2.27;2.17;;;25.30;38.20;;;;;;5053485;28;20438;-85
2022/03/12 04:53:21;;;;;;;2.97;2.77;;;25.30;38.20;;;;;;5053423;28;20501;-85
2022/03/12 04:55:48;;;;;;;2.90;2.70;;;25.30;38.20;;;;;;5053413;28;20450;-85
2022/03/12 04:58:16;;;;;;;2.67;2.47;;;25.30;38.20;;;;;;5053563;28;20857;-95
2022/03/12 05:00:45;;;;;;;5.73;2.17;;;25.30;38.20;;;;;;5053481;28;20438;-85
2022/03/12 05:03:13;;;;;;;2.50;2.30;;;25.30;38.20;;;;;;5053185;28;20529;-90
2022/03/12 05:05:41;;;;;;;2.30;2.20;;;25.20;38.20;;;;;;5053419;28;20452;-84
2022/03/12 05:08:09;;;;;;;2.50;2.30;;;25.20;38.10;;;;;;5053207;28;20442;-85
2022/03/12 05:10:36;;;;;;;2.63;2.43;;;25.20;38.20;;;;;;5053355;28;20518;-96
2022/03/12 05:13:04;;;;;;;2.07;1.97;;;25.20;38.20;;;;;;5053156;28;20486;-84
2022/03/12 05:15:37;;;;;;;5.10;2.10;;;25.20;38.20;;;;;;5053236;28;20437;-85
2022/03/12 05:18:07;;;;;;;2.27;2.07;;;25.20;38.20;;;;;;5053355;28;20452;-95
2022/03/12 05:20:36;;;;;;;2.23;2.03;;;25.20;38.20;;;;;;5053253;28;20944;-85
2022/03/12 05:23:06;;;;;;;2.37;2.20;;;25.20;38.20;;;;;;5057143;28;20953;-84
2022/03/12 05:25:32;;;;;;;2.40;2.20;;;25.20;38.20;;;;;;5057120;28;20449;-95
2022/03/12 05:27:59;;;;;;;1.80;1.70;;;25.20;38.30;;;;;;5057183;28;20445;-84
2022/03/12 05:30:27;;;;;;;2.60;2.27;;;25.20;38.30;;;;;;5057056;28;20450;-94
2022/03/12 05:32:55;;;;;;;2.40;2.20;;;25.20;38.90;;;;;;5056920;28;20507;-85
2022/03/12 05:35:23;;;;;;;1.97;1.87;;;25.20;38.30;;;;;;5056909;28;20450;-95
2022/03/12 05:37:51;;;;;;;2.57;2.37;;;25.20;38.30;;;;;;5056816;28;20452;-84
2022/03/12 05:40:19;;;;;;;2.43;2.23;;;25.20;38.30;;;;;;5056753;28;20445;-84
2022/03/12 05:42:48;;;;;;;2.70;2.50;;;25.20;38.30;;;;;;5056794;28;20998;-84
2022/03/12 05:45:18;;;;;;;2.30;2.20;;;25.20;38.30;;;;;;5056680;28;20472;-84
2022/03/12 05:47:45;;;;;;;2.23;2.13;;;25.20;38.30;;;;;;5056609;28;20441;-84
2022/03/12 05:50:13;;;;;;;2.40;2.30;;;25.20;38.30;;;;;;5056465;28;20439;-84
2022/03/12 05:52:49;;;;;;;2.83;2.63;;;25.20;38.30;;;;;;5056299;28;20494;-84
2022/03/12 05:55:17;;;;;;;2.37;2.20;;;25.20;38.30;;;;;;5056777;28;20486;-85
2022/03/12 05:57:45;;;;;;;2.50;2.30;;;25.20;38.30;;;;;;5056493;28;20438;-84
2022/03/12 06:00:15;;;;;;;2.40;2.30;;;25.20;38.30;;;;;;5056539;28;20478;-96
2022/03/12 06:02:43;;;;;;;2.57;2.37;;;25.20;38.30;;;;;;5056534;28;20433;-85
2022/03/12 06:05:14;;;;;;;2.63;2.43;;;25.20;38.30;;;;;;5056468;28;20892;-84
2022/03/12 06:07:45;;;;;;;2.80;2.60;;;25.20;38.30;;;;;;5056380;28;20448;-85
2022/03/12 06:10:13;;;;;;;2.40;2.30;;;25.40;38.40;;;;;;5056247;28;20456;-95
2022/03/12 06:12:43;;;;;;;2.63;2.43;;;25.20;38.40;;;;;;5056058;28;20489;-84
2022/03/12 06:15:11;;;;;;;2.20;2.10;;;25.10;38.30;;;;;;5056756;28;20496;-84
2022/03/12 06:17:39;;;;;;;2.40;2.20;;;25.20;38.40;;;;;;5056003;28;20442;-91
2022/03/12 06:20:08;;;;;;;2.30;2.20;;;25.20;38.40;;;;;;5055882;28;20941;-84
2022/03/12 06:22:35;;;;;;;2.37;2.20;;;25.20;38.40;;;;;;5056468;28;20458;-85
2022/03/12 06:25:04;;;;;;;2.37;2.27;;;25.20;38.40;;;;;;5056231;28;20536;-84
2022/03/12 06:27:31;;;;;;;1.70;1.60;;;25.10;38.30;;;;;;5056052;28;20434;-84
2022/03/12 06:29:57;;;;;;;2.30;2.10;;;25.20;38.40;;;;;;5056671;28;20449;-95
2022/03/12 06:32:24;;;;;;;2.50;2.30;;;25.10;38.30;;;;;;5056168;28;20434;-92
2022/03/12 06:34:51;;;;;;;2.70;2.50;;;25.20;38.40;;;;;;5055450;28;20442;-85
2022/03/12 06:37:18;;;;;;;2.73;2.53;;;25.20;38.40;;;;;;5055898;28;20529;-85
2022/03/12 06:39:45;;;;;;;2.43;2.23;;;25.10;38.40;;;;;;5055715;28;20559;-84
2022/03/12 06:42:13;;;;;;;2.77;2.57;;;25.20;38.40;;;;;;5055722;28;20438;-84
2022/03/12 06:44:41;;;;;;;2.80;2.60;;;25.20;38.40;;;;;;5055614;28;20470;-84
2022/03/12 06:47:09;;;;;;;2.53;2.33;;;25.20;38.40;;;;;;5055949;28;20446;-91
2022/03/12 06:49:36;;;;;;;2.03;1.93;;;25.20;38.40;;;;;;5055935;28;20448;-85
2022/03/12 06:52:04;;;;;;;3.00;2.10;;;25.20;38.40;;;;;;5055475;28;20465;-85
2022/03/12 06:54:31;;;;;;;2.33;2.17;;;25.20;38.40;;;;;;5055538;28;20489;-85
2022/03/12 06:56:58;;;;;;;2.10;1.93;;;25.20;38.40;;;;;;5055439;28;20444;-95
2022/03/12 06:59:26;;;;;;;2.63;2.43;;;25.20;38.40;;;;;;5055573;28;20433;-96
2022/03/12 07:01:53;;;;;;;2.27;2.17;;;25.20;38.40;;;;;;5055407;28;20464;-85
2022/03/12 07:04:21;;;;;;;2.20;2.10;;;25.20;38.40;;;;;;5055324;28;20808;-85
2022/03/12 07:06:48;;;;;;;2.60;2.37;;;25.20;38.40;;;;;;5055158;28;20442;-85
2022/03/12 07:09:15;;;;;;;2.23;2.03;;;25.20;38.40;;;;;;5055231;28;20441;-84
2022/03/12 07:11:42;;;;;;;2.03;1.90;;;25.20;38.40;;;;;;5055321;28;20460;-85
2022/03/12 07:14:09;;;;;;;2.03;1.83;;;25.20;38.40;;;;;;5054990;28;20486;-85
2022/03/12 07:16:37;;;;;;;2.20;2.00;;;25.20;38.40;;;;;;5055051;28;20952;-84
2022/03/12 07:19:04;;;;;;;2.13;2.03;;;25.20;38.40;;;;;;5054839;28;20529;-85
2022/03/12 07:21:31;;;;;;;1.87;1.77;;;25.20;38.40;;;;;;5055159;28;20465;-87
2022/03/12 07:23:58;;;;;;;2.40;2.23;;;25.20;38.40;;;;;;5054888;28;20430;-84
2022/03/12 07:26:25;;;;;;;5.13;2.60;;;25.20;38.40;;;;;;5054797;28;20449;-96
2022/03/12 07:28:51;;;;;;;2.57;2.10;;;25.20;38.40;;;;;;5054571;28;20987;-91
2022/03/12 07:31:20;;;;;;;1.80;1.70;;;25.20;38.40;;;;;;5054954;28;20434;-94
2022/03/12 07:33:48;;;;;;;2.37;2.27;;;25.20;38.40;;;;;;5054807;28;20477;-84
2022/03/12 07:36:15;;;;;;;2.40;2.20;;;25.20;38.40;;;;;;5054912;28;20453;-84
2022/03/12 07:38:42;;;;;;;5.70;2.60;;;25.20;38.40;;;;;;5054620;28;20825;-84
2022/03/12 07:41:09;;;;;;;1.90;1.80;;;25.30;38.50;;;;;;5055046;28;20477;-85
2022/03/12 07:43:37;;;;;;;2.10;1.80;;;25.30;38.40;;;;;;5054465;28;20828;-85
2022/03/12 07:46:04;;;;;;;2.30;2.10;;;25.20;38.70;;;;;;5054683;28;20426;-85
2022/03/12 07:48:30;;;;;;;2.60;2.40;;;25.30;38.60;;;;;;5055282;28;20929;-85
2022/03/12 07:51:00;;;;;;;5.40;3.90;;;25.30;38.50;;;;;;5056648;28;20464;-85
2022/03/12 07:53:27;;;;;;;7.57;3.80;;;25.40;38.90;;;;;;5056199;28;20486;-84
2022/03/12 07:55:53;;;;;;;4.40;3.70;;;25.30;38.90;;;;;;5057837;28;20452;-84
2022/03/12 07:58:20;;;;;;;5.73;2.80;;;25.30;39.00;;;;;;5058032;28;20458;-84
2022/03/12 08:00:47;;;;;;;2.93;2.63;;;25.30;38.80;;;;;;5055945;28;20548;-88
2022/03/12 08:03:14;;;;;;;2.77;2.57;;;25.40;38.80;;;;;;5059469;28;20450;-85
2022/03/12 08:05:41;;;;;;;2.40;2.20;;;25.40;38.60;;;;;;5055582;28;20429;-90
2022/03/12 08:08:10;;;;;;;3.70;2.80;;;25.50;38.80;;;;;;5057907;28;20956;-93
2022/03/12 08:11:24;;;;;;;2.63;2.43;;;25.40;38.80;;;;;;5057039;28;20536;-85
2022/03/12 08:13:23;;;;;;;2.03;1.93;;;25.50;38.90;;;;;;5054842;28;20476;-86
2022/03/12 08:15:50;;;;;;;2.30;2.20;;;25.50;38.90;;;;;;5055434;28;20448;-86
2022/03/12 08:18:17;;;;;;;2.90;2.63;;;25.50;39.10;;;;;;5058393;28;20450;-85
2022/03/12 08:20:45;;;;;;;4.17;2.50;;;25.70;39.20;;;;;;5058018;28;20434;-85
2022/03/12 08:23:13;;;;;;;2.53;2.33;;;25.50;39.20;;;;;;5057532;28;20434;-86
2022/03/12 08:25:40;;;;;;;2.63;2.43;;;25.60;39.40;;;;;;5053839;28;20445;-87
2022/03/12 08:28:07;;;;;;;2.30;2.10;;;25.60;39.40;;;;;;5054879;28;20495;-95
2022/03/12 08:30:34;;;;;;;2.37;2.17;;;25.60;39.30;;;;;;5058459;28;20912;-86
2022/03/12 08:33:01;;;;;;;3.23;2.40;;;25.70;39.50;;;;;;5056251;28;20452;-85
2022/03/12 08:35:28;;;;;;;2.57;2.30;;;25.70;39.60;;;;;;5054937;28;20868;-85
2022/03/12 08:37:56;;;;;;;2.30;2.10;;;25.70;39.70;;;;;;5054442;28;20929;-85
2022/03/12 08:40:26;;;;;;;2.10;1.90;;;25.80;39.80;;;;;;5057810;28;20445;-92
2022/03/12 08:42:53;;;;;;;2.10;1.90;;;25.90;40.00;;;;;;5054100;28;20444;-85
2022/03/12 08:45:20;;;;;;;2.03;1.93;;;25.90;40.00;;;;;;5055764;28;20444;-85
2022/03/12 08:47:46;;;;;;;2.43;2.23;;;26.00;40.10;;;;;;5053370;28;20442;-86
2022/03/12 08:50:14;;;;;;;3.83;2.67;;;26.00;39.80;;;;;;5053414;28;20438;-83
2022/03/12 08:52:42;;;;;;;3.40;2.30;;;26.10;39.70;;;;;;5053087;28;20548;-88
2022/03/12 08:55:11;;;;;;;4.53;2.00;;;26.10;39.50;;;;;;5052998;28;20469;-83
2022/03/12 08:57:39;;;;;;;2.67;1.83;;;26.20;39.50;;;;;;5053016;28;20434;-88
2022/03/12 09:00:10;;;;;;;2.50;2.30;;;26.20;39.50;;;;;;5053050;28;20445;-84
2022/03/12 09:02:38;;;;;;;3.63;2.00;;;26.20;39.40;;;;;;5053606;28;20949;-88
2022/03/12 09:05:07;;;;;;;1.90;1.80;;;26.30;39.40;;;;;;5053003;28;20445;-88
2022/03/12 09:07:34;;;;;;;2.33;2.20;;;26.30;39.30;;;;;;5053305;28;20900;-90
2022/03/12 09:10:01;;;;;;;2.80;1.90;;;26.30;39.40;;;;;;5053329;28;20446;-83
2022/03/12 09:12:27;;;;;;;2.60;2.40;;;26.40;39.40;;;;;;5053078;28;20446;-86
2022/03/12 09:14:56;;;;;;;3.13;2.40;;;26.40;39.40;;;;;;5052906;28;20485;-88
2022/03/12 09:17:22;;;;;;;1.77;1.67;;;26.40;39.40;;;;;;5053216;28;20516;-85
2022/03/12 09:19:49;;;;;;;1.77;1.67;;;26.40;39.40;;;;;;5053448;28;20445;-88
2022/03/12 09:22:16;;;;;;;2.17;2.07;;;26.50;39.40;;;;;;5052917;28;20457;-85
2022/03/12 09:24:43;;;;;;;2.03;1.93;;;26.50;39.40;;;;;;5053088;28;20916;-85
2022/03/12 09:27:09;;;;;;;1.97;1.87;;;26.50;39.50;;;;;;5053244;28;20456;-88
2022/03/12 09:29:38;;;;;;;2.63;1.90;;;26.50;39.50;;;;;;5053074;28;20449;-84
2022/03/12 09:32:08;;;;;;;2.50;2.10;;;26.50;39.50;;;;;;5053164;28;20442;-84
2022/03/12 09:34:35;;;;;;;1.90;1.80;;;26.50;39.50;;;;;;5053605;28;20524;-84
2022/03/12 09:37:02;;;;;;;2.90;2.00;;;26.50;39.60;;;;;;5053055;28;20451;-84
2022/03/12 09:39:29;;;;;;;2.50;1.80;;;26.50;39.60;;;;;;5052432;28;20442;-85
2022/03/12 09:41:55;;;;;;;3.13;2.30;;;26.60;39.70;;;;;;5053039;28;20433;-86
2022/03/12 09:44:22;;;;;;;2.40;2.20;;;26.50;39.60;;;;;;5052706;28;20808;-86
2022/03/12 09:46:49;;;;;;;1.97;1.80;;;26.50;39.70;;;;;;5052484;28;20448;-84
2022/03/12 09:49:18;;;;;;;4.83;1.90;;;26.50;39.70;;;;;;5051913;28;20516;-88
2022/03/12 09:51:45;;;;;;;2.37;2.17;;;26.50;39.80;;;;;;5051951;28;20469;-87
2022/03/12 09:54:11;;;;;;;1.80;1.70;;;26.50;39.80;;;;;;5051716;28;20496;-84
2022/03/12 09:56:38;;;;;;;2.10;2.00;;;26.60;39.90;;;;;;5051812;28;20472;-83
2022/03/12 09:59:06;;;;;;;2.13;1.87;;;26.60;39.90;;;;;;5051536;28;21148;-85
2022/03/12 10:01:32;;;;;;;4.30;2.33;;;26.70;40.00;;;;;;5052259;28;20500;-88
2022/03/12 10:03:59;;;;;;;2.40;2.20;;;26.60;39.90;;;;;;5052604;28;20442;-85
2022/03/12 10:06:28;;;;;;;3.70;2.70;;;26.60;39.90;;;;;;5052633;28;20437;-84
2022/03/12 10:08:55;;;;;;;2.63;2.20;;;26.60;40.00;;;;;;5054367;28;20453;-88
2022/03/12 10:11:22;;;;;;;3.00;2.67;;;26.60;40.00;;;;;;5056537;28;20445;-87
2022/03/12 10:13:48;;;;;;;3.27;2.97;;;26.70;40.00;;;;;;5056096;28;20473;-84
2022/03/12 10:16:18;;;;;;;3.90;3.60;;;26.70;40.10;;;;;;5056175;28;20460;-87
2022/03/12 10:18:45;;;;;;;6.93;5.60;;;26.70;40.10;;;;;;5055870;28;20464;-88
2022/03/12 10:21:12;;;;;;;7.87;7.10;;;26.70;40.20;;;;;;5056252;28;20549;-84
2022/03/12 10:23:40;;;;;;;12.07;7.70;;;26.70;40.30;;;;;;5055325;28;20438;-88
2022/03/12 10:26:07;;;;;;;8.63;7.73;;;26.70;40.40;;;;;;5055526;28;20449;-88
2022/03/12 10:28:36;;;;;;;9.30;7.43;;;26.70;40.30;;;;;;5055004;28;20787;-84
2022/03/12 10:31:05;;;;;;;9.87;7.73;;;26.70;40.30;;;;;;5055184;28;20445;-87
2022/03/12 10:33:33;;;;;;;8.43;7.10;;;26.70;40.40;;;;;;5055047;28;20935;-88
2022/03/12 10:36:10;;;;;;;8.13;7.33;;;26.70;40.40;;;;;;5055867;28;20492;-83
2022/03/12 10:38:40;;;;;;;7.97;6.37;;;26.60;40.70;;;;;;5055754;28;20496;-84
2022/03/12 10:41:08;;;;;;;6.47;5.87;;;26.40;40.90;;;;;;5055486;28;20442;-83
2022/03/12 10:43:44;;;;;;;4.83;4.43;;;26.40;41.10;;;;;;5055354;28;20466;-89
2022/03/12 10:46:19;;;;;;;6.63;5.93;;;26.40;41.20;;;;;;5055619;28;20465;-83
2022/03/12 10:48:47;;;;;;;5.93;5.40;;;26.30;41.40;;;;;;5055488;28;20790;-84
2022/03/12 10:51:14;;;;;;;5.50;4.70;;;26.30;41.60;;;;;;5055674;28;20466;-85
2022/03/12 10:53:45;;;;;;;8.33;5.10;;;26.20;41.60;;;;;;5054773;28;21022;-88
2022/03/12 10:56:11;;;;;;;5.87;4.63;;;26.20;41.60;;;;;;5055259;28;20438;-84
2022/03/12 10:58:38;;;;;;;6.20;5.60;;;26.30;41.30;;;;;;5054656;28;20445;-88
2022/03/12 11:01:05;;;;;;;7.57;5.50;;;26.40;41.20;;;;;;5054780;28;20445;-82
2022/03/12 11:03:34;;;;;;;7.67;5.67;;;26.40;41.10;;;;;;5054973;28;20438;-83
2022/03/12 11:06:02;;;;;;;6.60;5.90;;;26.50;41.30;;;;;;5054988;28;20456;-85
2022/03/12 11:08:30;;;;;;;8.93;5.90;;;26.50;41.20;;;;;;5054722;28;20449;-88
2022/03/12 11:11:00;;;;;;;5.87;5.27;;;26.50;41.10;;;;;;5054003;28;20452;-83
2022/03/12 11:13:41;;;;;;;5.30;4.80;;;26.60;41.00;;;;;;5053595;28;20485;-83
2022/03/12 11:16:20;;;;;;;4.90;4.40;;;26.60;41.10;;;;;;5054546;28;20446;-83
2022/03/12 11:19:11;;;;;;;4.63;3.80;;;26.60;41.10;;;;;;5054736;28;20874;-87
2022/03/12 11:21:41;;;;;;;5.70;4.33;;;26.60;41.10;;;;;;5054263;28;20457;-87
2022/03/12 11:24:14;;;;;;;4.87;4.30;;;26.60;41.00;;;;;;5054644;28;20476;-87
2022/03/12 11:26:47;;;;;;;4.37;4.03;;;26.60;41.00;;;;;;5053593;28;20445;-83
2022/03/12 11:29:15;;;;;;;4.70;4.30;;;26.70;41.00;;;;;;5054270;28;20441;-88
2022/03/12 11:31:45;;;;;;;4.37;4.00;;;26.60;41.00;;;;;;5054428;28;20529;-87
2022/03/12 11:34:23;;;;;;;5.70;4.00;;;26.70;41.10;;;;;;5055236;28;20473;-93
2022/03/12 11:37:05;;;;;;;3.53;3.20;;;26.70;41.50;;;;;;5055361;28;20430;-95
2022/03/12 11:39:34;;;;;;;4.17;3.23;;;26.70;41.70;;;;;;5061941;28;20432;-85
2022/03/12 11:42:06;;;;;;;3.10;2.90;;;26.70;41.80;;;;;;5054825;28;20454;-93
2022/03/12 11:44:34;;;;;;;3.33;3.03;;;26.70;41.60;;;;;;5054744;28;20963;-85
2022/03/12 11:47:02;;;;;;;3.53;3.33;;;26.70;41.70;;;;;;5054099;28;20444;-89
2022/03/12 11:49:29;;;;;;;3.03;2.73;;;26.70;41.60;;;;;;5054009;28;20960;-87
2022/03/12 11:51:57;;;;;;;4.20;3.33;;;26.70;41.40;;;;;;5053706;28;20469;-89
2022/03/12 11:54:23;;;;;;;4.57;3.50;;;26.60;41.30;;;;;;5054150;28;20486;-84
2022/03/12 11:56:51;;;;;;;3.50;3.20;;;26.60;41.20;;;;;;5054084;28;20939;-86
2022/03/12 11:59:19;;;;;;;3.00;2.80;;;26.60;41.20;;;;;;5053966;28;20484;-89
2022/03/12 12:02:01;;;;;;;3.50;3.20;;;26.60;41.20;;;;;;5054340;28;20446;-89
2022/03/12 12:04:29;;;;;;;5.93;3.17;;;26.60;41.20;;;;;;5053931;28;20757;-86
2022/03/12 12:06:57;;;;;;;3.17;2.87;;;26.50;41.30;;;;;;5053153;28;20454;-86
2022/03/12 12:09:23;;;;;;;3.20;3.00;;;26.50;41.20;;;;;;5052933;28;20438;-89
2022/03/12 12:11:50;;;;;;;4.53;4.13;;;26.50;41.20;;;;;;5053244;28;20936;-89
2022/03/12 12:14:19;;;;;;;3.13;2.43;;;26.40;41.20;;;;;;5053143;28;20473;-88
2022/03/12 12:16:46;;;;;;;2.77;2.57;;;26.40;41.20;;;;;;5053094;28;20499;-87
2022/03/12 12:19:13;;;;;;;6.43;3.30;;;26.30;41.40;;;;;;5053692;28;20441;-89
2022/03/12 12:21:40;;;;;;;4.63;3.00;;;26.30;41.40;;;;;;5053091;28;20483;-84
2022/03/12 12:24:25;;;;;;;3.70;2.90;;;26.30;41.30;;;;;;5053923;28;20433;-88
2022/03/12 12:27:00;;;;;;;3.07;2.73;;;26.30;41.30;;;;;;5053812;28;20444;-84
2022/03/12 12:29:56;;;;;;;4.00;3.60;;;26.30;41.40;;;;;;5053437;28;20445;-88
2022/03/12 12:32:24;;;;;;;2.40;2.20;;;26.10;41.80;;;;;;5028728;28;20446;-87
2022/03/12 12:34:59;;;;;;;2.87;2.67;;;26.10;41.60;;;;;;5053620;28;20477;-84
2022/03/12 12:37:41;;;;;;;3.50;2.50;;;26.20;41.50;;;;;;5053563;28;20452;-90
2022/03/12 12:40:19;;;;;;;2.83;2.63;;;26.20;41.50;;;;;;5053776;28;20430;-89
2022/03/12 12:42:48;;;;;;;3.13;2.93;;;26.20;41.60;;;;;;5053485;28;20455;-94
2022/03/12 12:45:18;;;;;;;4.00;3.60;;;26.00;41.50;;;;;;5053228;28;20442;-91
2022/03/12 12:47:46;;;;;;;4.43;4.03;;;26.10;41.70;;;;;;5053585;28;20444;-92
2022/03/12 12:50:20;;;;;;;3.77;3.53;;;26.00;41.90;;;;;;5053411;28;20467;-84
2022/03/12 12:53:14;;;;;;;3.43;3.13;;;26.00;41.80;;;;;;5053634;28;20475;-95
2022/03/12 12:55:41;;;;;;;4.47;2.90;;;26.00;41.90;;;;;;5053623;28;20489;-88